Terminal Aerodrome Forecast
Issued by NWS Wilmington, OH

Current Version | Previous Version | Text Only | Print | Product List | Glossary Off
Versions: 1 2 3 4 5 6 7 8 9 10 11 12 13 14 15 16 17 18 19 20 21 22 23

000
FTUS41 KILN 170800 AAA
TAFCVG
TAF AMD
KCVG 170855Z 1709/1812 13006KT P6SM BKN250
     FM171500 19010KT P6SM BKN250
     FM180000 18005KT P6SM BKN200
     FM180800 18003KT P6SM SCT050 BKN200=

USA.gov is the U.S. government's official web portal to all federal, state and local government web resources and services.